createdAt,value
2022-09-22T00:01:23.979Z,8.80
2022-09-22T00:03:55.421Z,8.77
2022-09-22T00:06:25.870Z,8.79
2022-09-22T00:08:56.399Z,8.45
2022-09-22T00:11:33.544Z,8.78
2022-09-22T00:14:08.419Z,8.73
2022-09-22T00:16:40.694Z,8.62
2022-09-22T00:19:14.284Z,8.68
2022-09-22T00:21:41.295Z,8.55
2022-09-22T00:24:08.674Z,8.42
2022-09-22T00:26:36.938Z,8.65
2022-09-22T00:29:05.471Z,8.72
2022-09-22T00:31:32.674Z,8.71
2022-09-22T00:33:59.840Z,8.73
2022-09-22T00:36:28.664Z,8.72
2022-09-22T00:38:57.733Z,8.77
2022-09-22T00:41:35.344Z,8.80
2022-09-22T00:44:27.116Z,8.83
2022-09-22T00:47:01.658Z,8.85
2022-09-22T00:49:47.031Z,8.95
2022-09-22T00:52:20.021Z,8.66
2022-09-22T00:54:48.634Z,8.99
2022-09-22T00:57:24.446Z,9.05
2022-09-22T00:59:53.906Z,8.75
2022-09-22T01:02:21.440Z,9.08
2022-09-22T01:04:51.681Z,8.78
2022-09-22T01:07:22.005Z,9.08
2022-09-22T01:09:49.467Z,9.09
2022-09-22T01:12:16.564Z,9.08
2022-09-22T01:14:59.322Z,9.08
2022-09-22T01:17:51.844Z,8.96
2022-09-22T01:20:37.451Z,8.89
2022-09-22T01:23:52.273Z,8.79
2022-09-22T01:26:36.582Z,8.92
2022-09-22T01:29:41.161Z,8.93
2022-09-22T01:32:29.742Z,8.96
2022-09-22T01:35:15.133Z,8.61
2022-09-22T01:38:04.935Z,8.99
2022-09-22T01:40:43.055Z,9.00
2022-09-22T01:43:18.972Z,9.02
2022-09-22T01:45:48.691Z,9.05
2022-09-22T01:48:24.172Z,9.05
2022-09-22T01:50:57.371Z,8.93
2022-09-22T01:53:30.301Z,8.68
2022-09-22T01:56:06.063Z,8.91
2022-09-22T01:58:37.164Z,8.94
2022-09-22T02:01:14.304Z,9.01
2022-09-22T02:03:57.503Z,8.98
2022-09-22T02:06:33.329Z,8.91
2022-09-22T02:09:06.344Z,8.95
2022-09-22T02:11:34.282Z,8.95
2022-09-22T02:14:02.944Z,8.68
2022-09-22T02:16:31.458Z,8.79
2022-09-22T02:19:21.153Z,8.96
2022-09-22T02:21:49.512Z,8.98
2022-09-22T02:24:31.521Z,8.99
2022-09-22T02:27:01.103Z,8.95
2022-09-22T02:29:34.482Z,8.94
2022-09-22T02:32:06.594Z,8.93
2022-09-22T02:34:34.240Z,8.73
2022-09-22T02:37:27.240Z,8.94
2022-09-22T02:40:11.816Z,8.95
2022-09-22T02:43:08.160Z,8.95
2022-09-22T02:45:46.103Z,8.93
2022-09-22T02:48:21.635Z,8.85
2022-09-22T02:50:48.586Z,8.87
2022-09-22T02:53:18.536Z,8.87
2022-09-22T02:55:47.161Z,8.51
2022-09-22T02:58:16.231Z,8.86
2022-09-22T03:00:45.561Z,8.55
2022-09-22T03:03:12.820Z,8.84
2022-09-22T03:05:40.163Z,8.40
2022-09-22T03:08:07.864Z,8.80
2022-09-22T03:10:35.034Z,8.77
2022-09-22T03:13:16.078Z,8.82
2022-09-22T03:15:48.393Z,8.83
2022-09-22T03:18:15.795Z,8.73
2022-09-22T03:20:43.080Z,8.82
2022-09-22T03:23:10.521Z,8.79
2022-09-22T03:25:37.986Z,8.82
2022-09-22T03:28:05.450Z,8.83
2022-09-22T03:30:32.923Z,8.64
2022-09-22T03:32:59.992Z,8.78
2022-09-22T03:35:27.135Z,8.67
2022-09-22T03:37:54.093Z,8.75
2022-09-22T03:40:22.860Z,8.58
2022-09-22T03:42:50.192Z,8.76
2022-09-22T03:45:17.322Z,8.71
2022-09-22T03:47:44.641Z,8.72
2022-09-22T03:50:12.094Z,8.62
2022-09-22T03:52:40.401Z,8.37
2022-09-22T03:55:08.415Z,8.66
2022-09-22T03:57:35.481Z,8.61
2022-09-22T04:00:03.894Z,8.65
2022-09-22T04:02:38.924Z,8.65
2022-09-22T04:05:06.544Z,8.58
2022-09-22T04:07:33.854Z,8.63
2022-09-22T04:10:02.279Z,8.63
2022-09-22T04:12:29.701Z,8.33
2022-09-22T04:14:56.990Z,8.49
2022-09-22T04:17:24.164Z,8.48
2022-09-22T04:19:51.332Z,8.21
2022-09-22T04:22:18.317Z,8.06
2022-09-22T04:24:45.311Z,8.26
2022-09-22T04:27:20.927Z,8.46
2022-09-22T04:29:49.340Z,8.42
2022-09-22T04:32:18.016Z,8.50
2022-09-22T04:34:45.495Z,8.49
2022-09-22T04:37:12.640Z,8.51
2022-09-22T04:39:39.746Z,8.38
2022-09-22T04:42:09.184Z,8.49
2022-09-22T04:44:36.610Z,8.46
2022-09-22T04:47:04.929Z,8.51
2022-09-22T04:49:32.100Z,8.48
2022-09-22T04:51:59.581Z,8.43
2022-09-22T04:54:26.582Z,8.38
2022-09-22T04:56:53.770Z,8.24
2022-09-22T04:59:20.869Z,8.54
2022-09-22T05:01:47.921Z,8.56
2022-09-22T05:04:15.101Z,8.29
2022-09-22T05:06:42.459Z,8.62
2022-09-22T05:09:09.573Z,8.66
2022-09-22T05:11:36.905Z,8.60
2022-09-22T05:14:04.021Z,8.69
2022-09-22T05:16:31.706Z,8.66
2022-09-22T05:18:58.840Z,8.68
2022-09-22T05:21:25.985Z,8.76
2022-09-22T05:23:53.312Z,8.77
2022-09-22T05:26:20.571Z,8.79
2022-09-22T05:28:47.607Z,8.85
2022-09-22T05:31:14.606Z,8.86
2022-09-22T05:33:41.906Z,8.93
2022-09-22T05:36:08.972Z,8.93
2022-09-22T05:38:36.180Z,8.97
2022-09-22T05:41:03.905Z,8.60
2022-09-22T05:43:31.073Z,8.21
2022-09-22T05:45:58.181Z,9.04
2022-09-22T05:48:28.890Z,9.06
2022-09-22T05:50:58.180Z,9.06
2022-09-22T05:53:25.192Z,9.08
2022-09-22T05:55:52.520Z,8.71
2022-09-22T05:58:20.799Z,9.13
2022-09-22T06:00:48.047Z,9.12
2022-09-22T06:03:15.438Z,9.16
2022-09-22T06:05:44.938Z,9.13
2022-09-22T06:08:12.271Z,9.19
2022-09-22T06:10:40.071Z,9.27
2022-09-22T06:13:10.173Z,9.35
2022-09-22T06:15:38.817Z,9.40
2022-09-22T06:18:13.181Z,9.45
2022-09-22T06:20:42.950Z,9.13
2022-09-22T06:23:10.630Z,9.47
2022-09-22T06:25:37.651Z,9.03
2022-09-22T06:28:07.042Z,9.51
2022-09-22T06:30:35.787Z,9.62
2022-09-22T06:33:03.193Z,9.36
2022-09-22T06:35:37.935Z,9.55
2022-09-22T06:38:06.906Z,9.42
2022-09-22T06:40:38.198Z,9.59
2022-09-22T06:43:13.136Z,9.80
2022-09-22T06:45:41.638Z,9.88
2022-09-22T06:48:10.987Z,9.94
2022-09-22T06:50:41.229Z,10.00
2022-09-22T06:53:12.018Z,10.04
2022-09-22T06:55:41.760Z,10.10
2022-09-22T06:58:09.478Z,10.16
2022-09-22T07:00:37.451Z,10.23
2022-09-22T07:03:26.481Z,10.11
2022-09-22T07:06:01.365Z,10.27
2022-09-22T07:08:30.970Z,10.37
2022-09-22T07:11:02.070Z,10.45
2022-09-22T07:13:31.451Z,10.52
2022-09-22T07:16:03.442Z,10.18
2022-09-22T07:18:31.461Z,9.98
2022-09-22T07:21:12.975Z,10.86
2022-09-22T07:23:41.110Z,10.95
2022-09-22T07:26:15.058Z,11.00
2022-09-22T07:28:42.677Z,11.07
2022-09-22T07:31:12.806Z,10.98
2022-09-22T07:33:42.851Z,11.07
2022-09-22T07:36:14.539Z,11.23
2022-09-22T07:38:44.284Z,11.32
2022-09-22T07:41:15.782Z,11.43
2022-09-22T07:43:42.982Z,11.42
2022-09-22T07:46:10.144Z,11.68
2022-09-22T07:48:38.039Z,11.77
2022-09-22T07:51:12.872Z,11.79
2022-09-22T07:53:41.613Z,11.86
2022-09-22T07:56:15.230Z,11.84
2022-09-22T07:58:48.346Z,11.77
2022-09-22T08:01:15.850Z,12.35
2022-09-22T08:03:43.439Z,12.61
2022-09-22T08:06:11.728Z,12.81
2022-09-22T08:08:42.413Z,12.99
2022-09-22T08:11:18.138Z,13.18
2022-09-22T08:13:57.475Z,13.40
2022-09-22T08:16:29.188Z,13.52
2022-09-22T08:19:02.672Z,13.71
2022-09-22T08:21:35.655Z,13.88
2022-09-22T08:24:07.914Z,13.83
2022-09-22T08:26:38.081Z,14.23
2022-09-22T08:29:06.971Z,14.40
2022-09-22T08:31:36.045Z,14.57
2022-09-22T08:34:06.619Z,14.53
2022-09-22T08:36:33.821Z,14.85
2022-09-22T08:39:02.163Z,14.60
2022-09-22T08:41:32.169Z,14.76
2022-09-22T08:44:03.796Z,14.47
2022-09-22T08:46:37.492Z,14.93
2022-09-22T08:49:54.271Z,15.16
2022-09-22T08:52:42.891Z,15.42
2022-09-22T08:55:24.120Z,15.59
2022-09-22T08:58:46.782Z,15.74
2022-09-22T09:01:41.427Z,15.91
2022-09-22T09:04:19.009Z,15.96
2022-09-22T09:06:52.839Z,15.60
2022-09-22T09:09:31.569Z,15.84
2022-09-22T09:12:06.325Z,15.64
2022-09-22T09:15:17.516Z,15.31
2022-09-22T09:17:47.971Z,14.97
2022-09-22T09:20:19.628Z,15.31
2022-09-22T09:22:55.619Z,15.47
2022-09-22T09:25:37.442Z,15.55
2022-09-22T09:28:13.535Z,15.59
2022-09-22T09:30:48.889Z,15.70
2022-09-22T09:33:26.692Z,15.78
2022-09-22T09:35:54.035Z,15.71
2022-09-22T09:38:35.883Z,15.87
2022-09-22T09:41:16.173Z,15.87
2022-09-22T09:43:45.107Z,15.98
2022-09-22T09:46:50.989Z,16.08
2022-09-22T09:49:21.668Z,16.18
2022-09-22T09:51:54.277Z,16.24
2022-09-22T09:54:21.517Z,16.23
2022-09-22T09:57:08.108Z,16.33
2022-09-22T09:59:56.011Z,16.15
2022-09-22T10:02:28.850Z,16.54
2022-09-22T10:05:00.380Z,16.65
2022-09-22T10:10:30.446Z,16.82
2022-09-22T10:13:00.628Z,16.88
2022-09-22T10:15:27.772Z,16.70
2022-09-22T10:17:54.963Z,16.42
2022-09-22T10:20:34.150Z,16.07
2022-09-22T10:23:34.337Z,15.71
2022-09-22T10:26:18.831Z,15.46
2022-09-22T10:28:50.563Z,15.03
2022-09-22T10:31:26.246Z,15.08
2022-09-22T10:33:59.164Z,15.00
2022-09-22T10:36:29.363Z,14.71
2022-09-22T10:38:59.630Z,14.85
2022-09-22T10:41:31.995Z,14.79
2022-09-22T10:44:15.538Z,14.78
2022-09-22T10:46:58.666Z,14.62
2022-09-22T10:49:37.485Z,14.76
2022-09-22T10:52:27.532Z,14.75
2022-09-22T10:55:09.657Z,14.73
2022-09-22T10:58:09.274Z,14.55
2022-09-22T11:00:39.646Z,14.74
2022-09-22T11:03:09.726Z,14.71
2022-09-22T11:06:25.049Z,14.56
2022-09-22T11:09:49.290Z,14.82
2022-09-22T11:12:29.167Z,15.51
2022-09-22T11:15:08.126Z,15.49
2022-09-22T11:18:20.807Z,15.55
2022-09-22T11:21:13.921Z,15.44
2022-09-22T11:24:06.126Z,15.30
2022-09-22T11:26:36.255Z,15.16
2022-09-22T11:29:11.866Z,15.07
2022-09-22T11:32:00.134Z,14.87
2022-09-22T11:34:51.644Z,15.00
2022-09-22T11:37:40.771Z,14.93
2022-09-22T11:40:17.486Z,15.08
2022-09-22T11:43:27.301Z,15.11
2022-09-22T11:45:54.659Z,15.19
2022-09-22T11:48:59.149Z,15.18
2022-09-22T11:51:47.601Z,15.25
2022-09-22T11:54:33.287Z,15.26
2022-09-22T11:57:14.544Z,15.18
2022-09-22T12:00:00.462Z,15.17
2022-09-22T12:02:32.721Z,15.16
2022-09-22T12:05:05.292Z,15.03
2022-09-22T12:07:45.120Z,15.21
2022-09-22T12:10:23.250Z,15.21
2022-09-22T12:12:52.001Z,15.16
2022-09-22T12:15:37.195Z,15.13
2022-09-22T12:18:14.232Z,15.07
2022-09-22T12:21:04.101Z,14.98
2022-09-22T12:23:41.507Z,14.85
2022-09-22T12:26:25.422Z,14.70
2022-09-22T12:28:52.770Z,14.48
2022-09-22T12:31:21.456Z,14.59
2022-09-22T12:33:53.172Z,14.45
2022-09-22T12:36:36.541Z,14.54
2022-09-22T12:39:24.461Z,14.60
2022-09-22T12:41:59.003Z,14.56
2022-09-22T12:44:30.590Z,14.53
2022-09-22T12:47:04.606Z,14.52
2022-09-22T12:49:32.178Z,14.55
2022-09-22T12:51:59.511Z,14.40
2022-09-22T12:54:29.219Z,14.67
2022-09-22T12:57:00.185Z,14.75
2022-09-22T12:59:36.419Z,14.78
2022-09-22T13:02:41.600Z,14.55
2022-09-22T13:05:12.030Z,14.84
2022-09-22T13:07:40.156Z,14.81
2022-09-22T13:10:22.887Z,14.80
2022-09-22T13:13:09.916Z,14.76
2022-09-22T13:15:46.372Z,14.75
2022-09-22T13:18:33.725Z,14.75
2022-09-22T13:21:03.673Z,14.76
2022-09-22T13:23:30.908Z,14.81
2022-09-22T13:26:06.989Z,14.89
2022-09-22T13:28:34.341Z,14.97
2022-09-22T13:31:29.285Z,14.85
2022-09-22T13:33:56.620Z,14.99
2022-09-22T13:36:25.559Z,15.00
2022-09-22T13:38:59.402Z,14.82
2022-09-22T13:41:37.390Z,15.15
2022-09-22T13:44:12.166Z,15.06
2022-09-22T13:46:51.230Z,15.08
2022-09-22T13:49:34.016Z,15.05
2022-09-22T13:52:07.630Z,14.98
2022-09-22T13:54:38.031Z,14.83
2022-09-22T13:57:16.031Z,14.93
2022-09-22T13:59:44.081Z,14.90
2022-09-22T14:02:13.640Z,14.65
2022-09-22T14:04:58.019Z,14.83
2022-09-22T14:07:30.207Z,14.53
2022-09-22T14:09:59.799Z,14.76
2022-09-22T14:12:29.332Z,14.73
2022-09-22T14:14:56.677Z,14.72
2022-09-22T14:17:28.963Z,14.73
2022-09-22T14:20:03.162Z,14.71
2022-09-22T14:22:40.769Z,14.75
2022-09-22T14:25:22.712Z,14.74
2022-09-22T14:27:58.995Z,14.79
2022-09-22T14:30:30.430Z,14.80
2022-09-22T14:33:01.759Z,14.81
2022-09-22T14:35:36.664Z,14.79
2022-09-22T14:38:17.211Z,14.78
2022-09-22T14:40:56.732Z,14.77
2022-09-22T14:43:27.926Z,14.73
2022-09-22T14:46:01.714Z,14.53
2022-09-22T14:48:33.527Z,14.60
2022-09-22T14:51:07.804Z,14.55
2022-09-22T14:53:44.244Z,14.48
2022-09-22T14:56:23.196Z,14.16
2022-09-22T14:58:53.519Z,14.39
2022-09-22T15:01:47.878Z,14.37
2022-09-22T15:04:39.277Z,14.34
2022-09-22T15:07:07.680Z,14.39
2022-09-22T15:09:43.071Z,14.45
2022-09-22T15:12:48.687Z,14.39
2022-09-22T15:15:19.384Z,14.52
2022-09-22T15:18:10.695Z,14.52
2022-09-22T15:20:56.003Z,14.42
2022-09-22T15:23:41.467Z,14.40
2022-09-22T15:26:24.119Z,14.47
2022-09-22T15:28:54.096Z,14.46
2022-09-22T15:31:28.409Z,14.44
2022-09-22T15:33:57.319Z,14.40
2022-09-22T15:36:26.058Z,14.35
2022-09-22T15:38:59.542Z,14.04
2022-09-22T15:41:27.823Z,14.39
2022-09-22T15:43:55.217Z,14.08
2022-09-22T15:46:34.336Z,14.27
2022-09-22T15:49:10.141Z,14.39
2022-09-22T15:51:37.562Z,14.41
2022-09-22T15:54:13.301Z,14.15
2022-09-22T15:56:42.115Z,14.41
2022-09-22T15:59:20.131Z,14.46
2022-09-22T16:01:47.703Z,14.36
2022-09-22T16:04:15.418Z,14.46
2022-09-22T16:06:48.507Z,13.66
2022-09-22T16:09:17.703Z,14.28
2022-09-22T16:11:45.235Z,14.44
2022-09-22T16:14:12.702Z,14.41
2022-09-22T16:16:39.880Z,14.40
2022-09-22T16:19:09.654Z,14.34
2022-09-22T16:21:40.788Z,14.35
2022-09-22T16:24:10.687Z,14.28
2022-09-22T16:26:40.125Z,14.27
2022-09-22T16:29:08.594Z,14.21
2022-09-22T16:31:37.496Z,14.16
2022-09-22T16:34:06.767Z,14.08
2022-09-22T16:36:36.503Z,14.09
2022-09-22T16:39:05.046Z,14.05
2022-09-22T16:41:34.096Z,13.96
2022-09-22T16:44:02.166Z,13.96
2022-09-22T16:46:30.680Z,13.92
2022-09-22T16:49:04.684Z,13.87
2022-09-22T16:51:33.865Z,13.86
2022-09-22T16:54:01.235Z,13.74
2022-09-22T16:56:30.457Z,13.80
2022-09-22T16:58:57.690Z,13.77
2022-09-22T17:01:24.999Z,13.75
2022-09-22T17:03:55.136Z,13.70
2022-09-22T17:06:25.485Z,13.68
2022-09-22T17:08:53.243Z,13.67
2022-09-22T17:11:23.615Z,13.65
2022-09-22T17:13:50.970Z,13.58
2022-09-22T17:16:25.339Z,13.57
2022-09-22T17:18:53.202Z,13.57
2022-09-22T17:21:24.529Z,13.55
2022-09-22T17:23:54.303Z,13.50
2022-09-22T17:26:21.790Z,13.45
2022-09-22T17:28:51.194Z,13.47
2022-09-22T17:31:19.264Z,13.24
2022-09-22T17:33:52.140Z,13.07
2022-09-22T17:36:21.528Z,13.34
2022-09-22T17:38:51.306Z,13.29
2022-09-22T17:41:20.593Z,13.23
2022-09-22T17:43:53.484Z,13.01
2022-09-22T17:46:20.757Z,13.08
2022-09-22T17:49:07.278Z,12.93
2022-09-22T17:51:55.903Z,13.06
2022-09-22T17:54:49.923Z,13.03
2022-09-22T17:57:19.943Z,12.99
2022-09-22T17:59:47.529Z,12.74
2022-09-22T18:02:16.939Z,12.90
2022-09-22T18:04:45.057Z,12.71
2022-09-22T18:07:23.536Z,12.41
2022-09-22T18:09:52.055Z,12.72
2022-09-22T18:12:21.678Z,12.28
2022-09-22T18:14:55.647Z,12.22
2022-09-22T18:17:27.446Z,12.51
2022-09-22T18:19:56.153Z,11.72
2022-09-22T18:22:25.064Z,12.46
2022-09-22T18:24:56.801Z,12.41
2022-09-22T18:27:27.508Z,11.98
2022-09-22T18:29:58.853Z,12.30
2022-09-22T18:32:27.810Z,12.12
2022-09-22T18:34:55.830Z,12.19
2022-09-22T18:37:24.915Z,12.17
2022-09-22T18:39:52.188Z,11.96
2022-09-22T18:42:21.606Z,11.90
2022-09-22T18:44:49.061Z,11.87
2022-09-22T18:47:21.295Z,11.92
2022-09-22T18:49:50.323Z,11.86
2022-09-22T18:52:21.779Z,11.80
2022-09-22T18:54:49.230Z,11.75
2022-09-22T18:57:16.419Z,11.71
2022-09-22T18:59:43.738Z,11.69
2022-09-22T19:02:12.026Z,11.63
2022-09-22T19:04:39.573Z,11.61
2022-09-22T19:07:25.543Z,11.61
2022-09-22T19:09:53.279Z,11.52
2022-09-22T19:12:21.821Z,11.21
2022-09-22T19:14:57.646Z,11.05
2022-09-22T19:17:24.847Z,11.41
2022-09-22T19:19:52.389Z,11.36
2022-09-22T19:22:20.577Z,11.37
2022-09-22T19:24:48.226Z,11.37
2022-09-22T19:27:17.937Z,11.28
2022-09-22T19:29:45.318Z,11.23
2022-09-22T19:32:12.847Z,11.22
2022-09-22T19:34:40.345Z,11.16
2022-09-22T19:37:07.753Z,11.17
2022-09-22T19:39:36.503Z,11.12
2022-09-22T19:42:03.757Z,10.81
2022-09-22T19:44:32.774Z,10.93
2022-09-22T19:46:59.994Z,10.96
2022-09-22T19:49:27.128Z,10.86
2022-09-22T19:51:54.476Z,10.92
2022-09-22T19:54:21.912Z,10.85
2022-09-22T19:56:50.538Z,10.79
2022-09-22T19:59:19.945Z,10.78
2022-09-22T20:01:48.270Z,10.46
2022-09-22T20:04:18.915Z,10.79
2022-09-22T20:06:49.052Z,10.02
2022-09-22T20:09:19.052Z,10.61
2022-09-22T20:11:49.762Z,10.74
2022-09-22T20:14:23.030Z,10.59
2022-09-22T20:17:09.666Z,10.51
2022-09-22T20:19:40.741Z,10.76
2022-09-22T20:22:28.293Z,10.62
2022-09-22T20:24:58.223Z,10.61
2022-09-22T20:27:29.381Z,10.56
2022-09-22T20:29:57.651Z,9.89
2022-09-22T20:32:26.877Z,10.06
2022-09-22T20:34:55.781Z,10.39
2022-09-22T20:37:25.130Z,10.36
2022-09-22T20:39:52.647Z,10.30
2022-09-22T20:42:20.134Z,10.36
2022-09-22T20:44:47.360Z,9.65
2022-09-22T20:47:17.343Z,10.04
2022-09-22T20:49:49.239Z,10.34
2022-09-22T20:52:20.494Z,10.33
2022-09-22T20:54:48.886Z,10.29
2022-09-22T20:57:16.395Z,10.14
2022-09-22T20:59:46.298Z,10.10
2022-09-22T21:02:15.212Z,10.16
2022-09-22T21:04:42.498Z,10.02
2022-09-22T21:07:11.628Z,10.04
2022-09-22T21:09:57.991Z,9.68
2022-09-22T21:12:31.125Z,9.58
2022-09-22T21:14:59.056Z,10.07
2022-09-22T21:17:28.174Z,10.02
2022-09-22T21:19:57.278Z,9.86
2022-09-22T21:22:25.588Z,9.90
2022-09-22T21:24:52.762Z,9.27
2022-09-22T21:27:20.409Z,9.79
2022-09-22T21:29:47.641Z,9.50
2022-09-22T21:32:14.849Z,9.70
2022-09-22T21:34:43.298Z,9.71
2022-09-22T21:37:10.621Z,9.65
2022-09-22T21:39:37.766Z,9.56
2022-09-22T21:42:04.917Z,9.06
2022-09-22T21:44:32.056Z,9.60
2022-09-22T21:46:59.595Z,9.51
2022-09-22T21:49:26.836Z,9.22
2022-09-22T21:51:53.894Z,9.57
2022-09-22T21:54:21.130Z,9.48
2022-09-22T21:56:50.854Z,9.45
2022-09-22T21:59:18.167Z,9.41
2022-09-22T22:01:45.423Z,9.41
2022-09-22T22:04:17.835Z,9.03
2022-09-22T22:06:46.211Z,8.78
2022-09-22T22:09:16.226Z,9.26
2022-09-22T22:11:55.788Z,9.26
2022-09-22T22:14:25.103Z,9.25
2022-09-22T22:16:55.207Z,9.22
2022-09-22T22:19:26.086Z,9.24
2022-09-22T22:21:54.055Z,9.22
2022-09-22T22:24:41.044Z,9.26
2022-09-22T22:27:10.404Z,9.27
2022-09-22T22:29:39.323Z,9.18
2022-09-22T22:32:09.142Z,9.26
2022-09-22T22:34:36.831Z,9.23
2022-09-22T22:37:07.250Z,9.15
2022-09-22T22:39:34.408Z,9.11
2022-09-22T22:42:01.696Z,9.10
2022-09-22T22:44:28.826Z,9.03
2022-09-22T22:46:55.995Z,8.93
2022-09-22T22:49:23.333Z,8.70
2022-09-22T22:51:52.498Z,8.96
2022-09-22T22:54:19.792Z,9.03
2022-09-22T22:56:50.918Z,8.93
2022-09-22T22:59:19.337Z,8.73
2022-09-22T23:01:46.672Z,8.99
2022-09-22T23:04:13.857Z,9.01
2022-09-22T23:06:44.470Z,9.06
2022-09-22T23:09:14.302Z,9.01
2022-09-22T23:11:42.667Z,8.96
2022-09-22T23:14:13.046Z,8.99
2022-09-22T23:16:46.890Z,8.97
2022-09-22T23:19:17.228Z,8.87
2022-09-22T23:21:46.076Z,8.96
2022-09-22T23:24:19.413Z,8.96
2022-09-22T23:26:46.745Z,8.79
2022-09-22T23:29:13.910Z,8.60
2022-09-22T23:31:41.044Z,8.54
2022-09-22T23:34:08.179Z,8.84
2022-09-22T23:36:35.441Z,8.82
2022-09-22T23:39:04.459Z,8.86
2022-09-22T23:41:36.547Z,8.82
2022-09-22T23:44:07.832Z,8.77
2022-09-22T23:46:35.173Z,8.58
2022-09-22T23:49:02.680Z,8.69
2022-09-22T23:51:30.568Z,8.66
2022-09-22T23:53:58.416Z,8.62
2022-09-22T23:56:25.871Z,8.59
2022-09-22T23:58:53.452Z,8.54
